createdAt,value
2023-03-15T15:42:27.552Z,782.00
2023-03-15T15:46:26.861Z,581.00
2023-03-15T15:50:26.781Z,556.00
2023-03-15T15:54:26.760Z,541.00
2023-03-15T15:58:26.733Z,534.00
2023-03-15T16:02:26.770Z,532.00
2023-03-15T16:06:26.650Z,530.00
2023-03-15T16:10:26.598Z,525.00
2023-03-15T16:14:26.616Z,523.00
2023-03-15T16:18:26.651Z,524.00
2023-03-15T16:22:26.850Z,528.00
2023-03-15T16:26:26.786Z,527.00
2023-03-15T16:30:26.824Z,525.00
2023-03-15T16:34:26.829Z,530.00
2023-03-15T16:38:26.801Z,528.00
2023-03-15T16:42:26.843Z,527.00
2023-03-15T16:46:26.983Z,520.00
2023-03-15T16:50:27.076Z,525.00
2023-03-15T16:54:40.335Z,529.00
2023-03-15T16:58:27.894Z,536.00
2023-03-15T17:02:26.952Z,538.00
2023-03-15T17:06:26.819Z,540.00
2023-03-15T17:10:26.841Z,535.00
2023-03-15T17:14:26.796Z,535.00
2023-03-15T17:18:26.733Z,535.00
2023-03-15T17:22:26.660Z,537.00
2023-03-15T17:26:26.686Z,536.00
2023-03-15T17:30:26.728Z,540.00
2023-03-15T17:34:26.624Z,544.00
2023-03-15T17:38:26.628Z,544.00
2023-03-15T17:42:26.664Z,540.00
2023-03-15T17:46:26.683Z,541.00
2023-03-15T17:50:26.617Z,539.00
2023-03-15T17:54:26.631Z,541.00
2023-03-15T17:58:26.609Z,542.00
2023-03-15T18:02:26.635Z,540.00
2023-03-15T18:06:26.597Z,543.00
2023-03-15T18:10:26.689Z,542.00
2023-03-15T18:14:26.588Z,545.00
2023-03-15T18:18:26.745Z,550.00
2023-03-15T18:22:26.610Z,554.00
2023-03-15T18:26:26.651Z,549.00
2023-03-15T18:30:26.605Z,545.00
2023-03-15T18:34:26.597Z,548.00
2023-03-15T18:38:26.599Z,545.00
2023-03-15T18:42:26.604Z,546.00
2023-03-15T18:46:26.749Z,547.00
2023-03-15T18:50:26.594Z,545.00
2023-03-15T18:54:26.610Z,550.00
2023-03-15T18:58:26.588Z,550.00
2023-03-15T19:02:26.671Z,557.00
2023-03-15T19:06:26.680Z,561.00
2023-03-15T19:10:26.618Z,559.00
2023-03-15T19:14:26.588Z,561.00
2023-03-15T19:18:26.623Z,559.00
2023-03-15T19:22:26.634Z,564.00
2023-03-15T19:26:26.672Z,560.00
2023-03-15T19:30:26.674Z,560.00
2023-03-15T19:34:26.718Z,562.00
2023-03-15T19:38:26.725Z,566.00
2023-03-15T19:42:26.732Z,567.00
2023-03-15T19:46:27.372Z,570.00
2023-03-15T19:50:26.749Z,571.00
2023-03-15T19:54:27.737Z,571.00
2023-03-15T19:58:26.855Z,574.00
2023-03-15T20:02:26.872Z,573.00
2023-03-15T20:06:26.857Z,579.00
2023-03-15T20:10:26.977Z,583.00
2023-03-15T20:14:27.008Z,579.00
2023-03-15T20:18:27.027Z,588.00
2023-03-15T20:22:26.999Z,589.00
2023-03-15T20:26:27.074Z,595.00
2023-03-15T20:30:28.066Z,597.00
2023-03-15T20:34:27.182Z,592.00
2023-03-15T20:38:27.198Z,591.00
2023-03-15T20:42:27.226Z,597.00
2023-03-15T20:46:27.357Z,600.00
2023-03-15T20:50:27.378Z,601.00
2023-03-15T20:54:27.351Z,602.00
2023-03-15T20:58:27.431Z,605.00
2023-03-15T21:02:27.449Z,609.00
2023-03-15T21:06:27.576Z,610.00
2023-03-15T21:10:28.161Z,604.00
2023-03-15T21:14:27.581Z,607.00
2023-03-15T21:18:27.694Z,606.00
2023-03-15T21:22:27.618Z,606.00
2023-03-15T21:26:27.694Z,604.00
2023-03-15T21:30:27.771Z,605.00
2023-03-15T21:34:27.783Z,599.00
2023-03-15T21:38:27.839Z,606.00
2023-03-15T21:42:27.924Z,606.00
2023-03-15T21:46:28.053Z,611.00
2023-03-15T21:50:27.974Z,615.00
2023-03-15T21:54:28.045Z,609.00
2023-03-15T21:58:28.126Z,616.00
2023-03-15T22:02:28.197Z,615.00
2023-03-15T22:06:28.271Z,612.00
2023-03-15T22:10:28.349Z,614.00
2023-03-15T22:14:28.424Z,618.00
2023-03-15T22:18:28.550Z,619.00
2023-03-15T22:22:28.620Z,617.00
2023-03-15T22:26:28.781Z,623.00
2023-03-15T22:30:28.910Z,619.00
2023-03-15T22:34:28.944Z,618.00
2023-03-15T22:38:31.716Z,611.00
2023-03-15T22:42:29.727Z,611.00
2023-03-15T22:46:29.010Z,608.00
2023-03-15T22:50:28.970Z,604.00
2023-03-15T22:54:28.959Z,609.00
2023-03-15T22:58:28.895Z,605.00
2023-03-15T23:02:28.898Z,600.00
2023-03-15T23:06:31.799Z,602.00
2023-03-15T23:10:29.721Z,601.00
2023-03-15T23:14:28.775Z,595.00
2023-03-15T23:18:28.766Z,589.00
2023-03-15T23:22:28.753Z,590.00
2023-03-15T23:26:28.635Z,587.00
2023-03-15T23:30:29.020Z,585.00
2023-03-15T23:34:28.573Z,588.00
2023-03-15T23:38:28.551Z,583.00
2023-03-15T23:42:28.523Z,585.00
2023-03-15T23:46:28.535Z,583.00
2023-03-15T23:50:28.780Z,587.00
2023-03-15T23:54:28.415Z,588.00
2023-03-15T23:58:28.338Z,588.00
